メインページ
METAR-TAF:

METAR-TAF

空港 :

ヴォルゴグラード, ロシア

ヴォルゴグラード国際空港

緯度: 48-47N, 経度: 044-22E, 海抜: 145m

現時点の気象観測

当レポートは45分前の09:00(UTC)に作成
西/南西の風 14kt
気温 7°C
湿度 93%
気圧 1010 hPa
視程: 4600m
高度700ftの雲は散在している
高度3000ftの千切れ雲あり, 積乱雲.
弱いにわか雨

METAR: URWW 250900Z 25007MPS 4600 -SHRA SCT007 BKN030CB 07/06 Q1010 R24/290060 NOSIG RMK OBST OBSC

時間: 12:45 (09:45 UTC)

予報

当レポートは1時間46分前の07:59(UTC)に作成
予報は25日の 09時(UTC)から 25日の 18時(UTC)まで有効
西/南西の風 19kt、最大31ktの突風を伴う
視程: 3100m
高度700ftの千切れ雲あり
高度2000ftの千切れ雲あり, 積乱雲.
高度10000ftの千切れ雲あり
弱いにわか雨, 靄
25日の 09時(UTC)から 25日の 12時(UTC)まで一時的に
西の風 21kt、最大33ktの突風を伴う
25日の 1200時(UTC)から
北/北西の風 17kt、最大29ktの突風を伴う
視程10km以上
高度1100ftの千切れ雲あり
高度2000ftの雲は散在している, 積乱雲.
高度10000ftの千切れ雲あり
25日の 12時(UTC)から 25日の 18時(UTC)まで一時的に
視程: 3100m
弱いにわか雨

TAF: URWW 250759Z 2509/2518 24010G16MPS 3100 -SHRA BR BKN007 BKN020CB BKN100 TEMPO 2509/2512 28011G17MPS FM251200 33009G15MPS 9999 BKN011 SCT020CB BKN100 TEMPO 2512/2518 3100 -SHRA

4,000以上の空港の気象観測と天気予報(METAR報とTAF報)

利用可能な観測所は地図上に黄色い丸と赤い丸で示す。

丸の上にカーソルを重ねると観測所名を参照できる。

次にクリックすると気象観測と天気予報を参照できる。

マップの切り替え:黒色「×」印の緑ボタンをクリックして拡大、「-」印の緑ボタンをクリックして縮小、緑色の三角印をクリックして隣りの地図に切り替え


METAR-TAF: